aviador You're here:

KGWW Decoded Metar

GOLDSBORO/WAYNE in NC, USA
Report Time2017-11-20 22:30:00
UTC Time2017-11-20 22:55:36
Flight Rules vfr VFR
WindCalm
Visibility9999 m
Phenomena:N/A
Clouds:N/A
Expected CloudBase > 1,200 ft AGL from Temp-Dew spread
CeilingNone
Temp06°C (ISA -9)
Dew Point03°C (81% RH)
AAT4.5°C
QNH1024 hPa
Density Alt-1,188 ft
Elevation135 ft
Report Wrong Elevation
Raw Report
METAR KGWW 202230Z AUTO 00000KT 10SM CLR 06/03 A3024 RMK AO2 T00610032=

Extra information for KGWW:More info

Metar Taf Metar & Taf Last 4 Metars F.Rules Stats Wind Profile Meteogram Temp Stats Airport Information Weather charts Add Link Nearby VenuesMetar ALERT Operation Metar Decoded Social comments

AIRNAV info for KGWW